createdAt,value
2018-05-31T00:01:23.077Z,4.46
2018-05-31T00:07:18.037Z,5.3
2018-05-31T00:13:13.069Z,4.74
2018-05-31T00:19:08.051Z,5.64
2018-05-31T00:25:03.122Z,6.2
2018-05-31T00:30:58.096Z,5.34
2018-05-31T00:36:53.053Z,5.9
2018-05-31T00:42:48.044Z,4.89
2018-05-31T00:48:43.072Z,4.15
2018-05-31T00:54:38.060Z,4.58
2018-05-31T01:00:33.100Z,5.07
2018-05-31T01:06:28.103Z,4.77
2018-05-31T01:12:23.066Z,5.12
2018-05-31T01:18:18.076Z,5.37
2018-05-31T01:24:13.064Z,5.38
2018-05-31T01:30:08.092Z,5.46
2018-05-31T01:36:03.143Z,6.34
2018-05-31T01:41:58.121Z,5.61
2018-05-31T01:47:53.047Z,5.45
2018-05-31T01:53:48.070Z,5.27
2018-05-31T01:59:43.054Z,6.13
2018-05-31T02:05:38.100Z,6.4
2018-05-31T02:11:33.064Z,5.66
2018-05-31T02:17:28.053Z,6.84
2018-05-31T02:23:23.075Z,6.4
2018-05-31T02:29:18.070Z,6
2018-05-31T02:35:13.042Z,5.9
2018-05-31T02:41:08.083Z,6.4
2018-05-31T02:47:03.061Z,6.71
2018-05-31T02:52:58.092Z,6.02
2018-05-31T02:58:53.035Z,6.25
2018-05-31T03:04:48.071Z,5.75
2018-05-31T03:10:43.110Z,5.93
2018-05-31T03:16:38.097Z,5.17
2018-05-31T03:22:33.133Z,5.84
2018-05-31T03:28:28.091Z,6.57
2018-05-31T03:34:23.143Z,5.91
2018-05-31T03:40:18.073Z,5.71
2018-05-31T03:46:13.131Z,5.78
2018-05-31T03:52:08.128Z,7.22
2018-05-31T03:58:03.127Z,5.8
2018-05-31T04:03:58.101Z,5.99
2018-05-31T04:09:53.086Z,8.26
2018-05-31T04:15:48.116Z,12.24
2018-05-31T04:21:43.050Z,6.53
2018-05-31T04:27:38.075Z,7.17
2018-05-31T04:33:33.211Z,10.58
2018-05-31T04:39:28.062Z,14.74
2018-05-31T04:45:23.071Z,18.32
2018-05-31T04:51:18.130Z,22.22
2018-05-31T04:57:13.093Z,14.77
2018-05-31T05:03:08.096Z,13.17
2018-05-31T05:09:03.103Z,18.51
2018-05-31T05:14:58.150Z,11.16
2018-05-31T05:20:53.113Z,10.49
2018-05-31T05:26:48.113Z,9.59
2018-05-31T05:32:43.164Z,9.63
2018-05-31T05:38:38.120Z,9.13
2018-05-31T05:44:33.155Z,15.96
2018-05-31T05:50:28.157Z,12.99
2018-05-31T05:56:23.196Z,10.51
2018-05-31T06:02:18.137Z,9.76
2018-05-31T06:08:13.110Z,9.09
2018-05-31T06:14:08.106Z,10.22
2018-05-31T06:20:03.183Z,9.58
2018-05-31T06:25:58.200Z,8.99
2018-05-31T06:31:53.192Z,9.27
2018-05-31T06:37:48.108Z,7.96
2018-05-31T06:43:43.192Z,8.16
2018-05-31T06:49:38.152Z,7.8
2018-05-31T06:55:33.097Z,8.02
2018-05-31T07:01:28.131Z,9.57
2018-05-31T07:07:23.146Z,9.15
2018-05-31T07:13:18.140Z,9.13
2018-05-31T07:19:13.137Z,9.33
2018-05-31T07:25:08.154Z,7.35
2018-05-31T07:31:03.147Z,7.15
2018-05-31T07:36:58.138Z,7.59
2018-05-31T07:42:53.240Z,8.11
2018-05-31T07:48:48.147Z,6.5
2018-05-31T07:54:43.126Z,7.41
2018-05-31T08:00:38.142Z,7.63
2018-05-31T08:06:33.152Z,7.6
2018-05-31T08:12:28.145Z,7.58
2018-05-31T08:18:23.221Z,8.27
2018-05-31T08:24:18.217Z,7.46
2018-05-31T08:30:13.181Z,8.17
2018-05-31T08:36:08.139Z,8.29
2018-05-31T08:42:03.132Z,9.33
2018-05-31T08:47:58.131Z,10.81
2018-05-31T08:53:53.176Z,11.4
2018-05-31T08:59:48.207Z,11.76
2018-05-31T09:05:43.170Z,13.63
2018-05-31T09:11:38.210Z,12.3
2018-05-31T09:17:33.173Z,13.6
2018-05-31T09:23:28.189Z,12.15
2018-05-31T09:29:23.201Z,13.42
2018-05-31T09:35:18.212Z,12.05
2018-05-31T09:41:13.270Z,13.77
2018-05-31T09:47:08.195Z,14.17
2018-05-31T09:53:03.231Z,13.28
2018-05-31T09:58:58.237Z,13.88
2018-05-31T10:04:53.197Z,12.58
2018-05-31T10:10:48.243Z,14.41
2018-05-31T10:16:43.217Z,13.19
2018-05-31T10:22:38.226Z,12.94
2018-05-31T10:28:33.198Z,12.92
2018-05-31T10:34:28.205Z,14.44
2018-05-31T10:40:23.200Z,15.03
2018-05-31T10:46:18.175Z,13.63
2018-05-31T10:52:13.185Z,14.37
2018-05-31T10:58:08.189Z,11.43
2018-05-31T11:04:03.771Z,9.69
2018-05-31T11:09:58.210Z,10.62
2018-05-31T11:15:53.209Z,9.41
2018-05-31T11:21:48.217Z,9.05
2018-05-31T11:27:43.212Z,8.61
2018-05-31T11:33:38.240Z,8.94
2018-05-31T11:39:33.191Z,8.66
2018-05-31T11:45:28.272Z,8.8
2018-05-31T11:51:23.218Z,8.23
2018-05-31T11:57:18.242Z,6.39
2018-05-31T12:03:13.197Z,8.13
2018-05-31T12:09:08.238Z,7.63
2018-05-31T12:15:03.480Z,7.03
2018-05-31T12:20:58.202Z,7.24
2018-05-31T12:26:53.235Z,8.37
2018-05-31T12:32:48.223Z,7.73
2018-05-31T12:38:43.235Z,8
2018-05-31T12:44:38.276Z,7.01
2018-05-31T12:50:33.223Z,7.24
2018-05-31T12:56:28.267Z,6.33
2018-05-31T13:02:23.296Z,6.96
2018-05-31T13:08:18.217Z,6.85
2018-05-31T13:14:13.220Z,7.25
2018-05-31T13:20:08.295Z,7.04
2018-05-31T13:26:03.249Z,6.56
2018-05-31T13:31:58.233Z,7.16
2018-05-31T13:37:53.246Z,6.93
2018-05-31T13:43:48.272Z,6.45
2018-05-31T13:49:43.225Z,5.92
2018-05-31T13:55:38.349Z,5.87
2018-05-31T14:01:33.263Z,6.02
2018-05-31T14:07:28.256Z,5.72
2018-05-31T14:13:23.264Z,7.07
2018-05-31T14:19:18.306Z,6.5
2018-05-31T14:25:13.281Z,5.8
2018-05-31T14:31:08.263Z,6.38
2018-05-31T14:37:03.251Z,6.52
2018-05-31T14:42:58.302Z,6.61
2018-05-31T14:48:53.270Z,7.19
2018-05-31T14:54:48.272Z,6.42
2018-05-31T15:00:43.273Z,6.35
2018-05-31T15:06:38.328Z,5.65
2018-05-31T15:12:33.364Z,5.87
2018-05-31T15:18:28.261Z,5.49
2018-05-31T15:24:23.323Z,5.72
2018-05-31T15:30:18.286Z,6.03
2018-05-31T15:36:13.275Z,5.82
2018-05-31T15:42:08.379Z,6.18
2018-05-31T15:48:03.311Z,6.65
2018-05-31T15:53:58.301Z,5.67
2018-05-31T15:59:53.326Z,5.13
2018-05-31T16:05:48.326Z,5.4
2018-05-31T16:11:43.349Z,5.73
2018-05-31T16:17:38.326Z,5.02
2018-05-31T16:23:33.323Z,5.65
2018-05-31T16:29:28.299Z,6.1
2018-05-31T16:35:23.303Z,5.92
2018-05-31T16:41:18.374Z,5.32
2018-05-31T16:47:13.315Z,5.03
2018-05-31T16:53:08.324Z,5.54
2018-05-31T16:59:03.339Z,5.32
2018-05-31T17:04:58.342Z,5.38
2018-05-31T17:10:53.358Z,5.45
2018-05-31T17:16:48.340Z,5.95
2018-05-31T17:22:43.337Z,5.6
2018-05-31T17:28:38.343Z,5.77
2018-05-31T17:34:33.394Z,4.96
2018-05-31T17:40:28.363Z,5.09
2018-05-31T17:46:23.329Z,5.62
2018-05-31T17:52:18.390Z,6.44
2018-05-31T17:58:13.344Z,6.2
2018-05-31T18:04:08.383Z,6.57
2018-05-31T18:10:03.423Z,6.11
2018-05-31T18:15:58.380Z,6.03
2018-05-31T18:21:53.366Z,6.1
2018-05-31T18:27:48.342Z,6.36
2018-05-31T18:33:43.382Z,6.4
2018-05-31T18:39:38.353Z,5.66
2018-05-31T18:45:33.351Z,6.72
2018-05-31T18:51:28.371Z,6.48
2018-05-31T18:57:23.431Z,6.53
2018-05-31T19:03:18.421Z,6.91
2018-05-31T19:09:13.378Z,7.18
2018-05-31T19:15:08.403Z,7
2018-05-31T19:21:03.388Z,7.33
2018-05-31T19:26:58.370Z,7.61
2018-05-31T19:32:53.477Z,6.3
2018-05-31T19:38:48.392Z,6.9
2018-05-31T19:44:43.472Z,6.05
2018-05-31T19:50:38.404Z,5.87
2018-05-31T19:56:33.454Z,5.9
2018-05-31T20:02:28.467Z,5.4
2018-05-31T20:08:23.390Z,6.02
2018-05-31T20:14:18.444Z,4.93
2018-05-31T20:20:13.411Z,4.83
2018-05-31T20:26:08.438Z,5.1
2018-05-31T20:32:03.479Z,5.41
2018-05-31T20:37:58.425Z,5.71
2018-05-31T20:43:53.455Z,6.54
2018-05-31T20:49:48.408Z,5.61
2018-05-31T20:55:43.425Z,5.65
2018-05-31T21:01:38.537Z,6.07
2018-05-31T21:07:33.465Z,6.85
2018-05-31T21:13:28.446Z,7.29
2018-05-31T21:19:23.475Z,7.08
2018-05-31T21:25:18.494Z,7.33
2018-05-31T21:31:13.431Z,7.03
2018-05-31T21:37:08.507Z,7.58
2018-05-31T21:43:03.415Z,7.71
2018-05-31T21:48:58.437Z,7.65
2018-05-31T21:54:53.588Z,7.75
2018-05-31T22:00:48.468Z,6.92
2018-05-31T22:06:43.442Z,6.56
2018-05-31T22:12:38.433Z,6.33
2018-05-31T22:18:33.435Z,6.37
2018-05-31T22:24:28.506Z,5.71
2018-05-31T22:30:23.437Z,6.85
2018-05-31T22:36:18.437Z,6.92
2018-05-31T22:42:13.521Z,6.67
2018-05-31T22:48:08.498Z,6.18
2018-05-31T22:54:03.534Z,7.01
2018-05-31T22:59:58.621Z,6.99
2018-05-31T23:05:53.517Z,7.42
2018-05-31T23:11:48.466Z,7.81
2018-05-31T23:17:43.442Z,7.36
2018-05-31T23:23:38.519Z,7.81
2018-05-31T23:29:33.442Z,7.4
2018-05-31T23:35:28.441Z,7.28
2018-05-31T23:41:23.498Z,7.03
2018-05-31T23:47:18.472Z,7.53
2018-05-31T23:53:13.444Z,6.69
2018-05-31T23:59:08.495Z,7.04
